Time;durP1;ratioP1;P1;durP2;ratioP2;P2;SDS_P1;SDS_P2;PMS_P1;PMS_P2;Temp;Humidity;BMP_temperature;BMP_pressure;BME280_temperature;BME280_humidity;BME280_pressure;Samples;Min_cycle;Max_cycle;Signal;HPM_P1;HPM_P2
2021/12/05 00:19:17;;;;;;;5.03;1.50;;;;;;;2.04;100.00;95552.19;4924916;29;20408;-59
2021/12/05 00:21:58;;;;;;;4.32;1.70;;;;;;;2.01;100.00;95560.94;4911611;29;20051;-60
2021/12/05 00:24:28;;;;;;;6.55;1.75;;;;;;;2.01;100.00;95556.31;4919569;29;20039;-60
2021/12/05 00:27:01;;;;;;;2.95;1.70;;;;;;;2.13;100.00;95568.25;4924149;29;20054;-60
2021/12/05 00:29:36;;;;;;;5.20;2.05;;;;;;;2.12;100.00;95569.38;4918715;29;20050;-61
2021/12/05 00:32:30;;;;;;;4.93;1.85;;;;;;;2.19;100.00;95577.69;4921251;29;20400;-62
2021/12/05 00:45:48;;;;;;;5.88;1.60;;;;;;;1.92;100.00;95577.25;4917348;29;20518;-61
2021/12/05 00:51:13;;;;;;;10.68;1.75;;;;;;;2.05;100.00;95578.84;4924413;29;20118;-59
2021/12/05 01:02:20;;;;;;;17.23;1.90;;;;;;;2.24;100.00;95583.66;4887866;29;20048;-60
2021/12/05 01:09:48;;;;;;;3.78;1.40;;;;;;;2.21;100.00;95586.25;4904042;29;20044;-60
2021/12/05 01:15:05;;;;;;;5.50;1.85;;;;;;;2.12;100.00;95589.06;4905499;29;20112;-59
2021/12/05 01:17:47;;;;;;;2.92;1.33;;;;;;;2.26;100.00;95589.50;4904118;29;20099;-61
2021/12/05 01:20:17;;;;;;;6.35;1.55;;;;;;;2.23;100.00;95594.78;4899744;29;20048;-60
2021/12/05 01:22:51;;;;;;;5.55;1.60;;;;;;;2.15;100.00;95593.81;4945182;29;20051;-62
2021/12/05 01:27:53;;;;;;;4.50;1.73;;;;;;;2.29;100.00;95586.13;4924581;29;20152;-62
2021/12/05 01:30:31;;;;;;;8.40;1.52;;;;;;;2.26;100.00;95591.44;4914408;29;20044;-61
2021/12/05 01:41:13;;;;;;;4.63;2.13;;;;;;;2.17;100.00;95588.06;4929530;29;20047;-61
2021/12/05 01:50:02;;;;;;;9.02;1.80;;;;;;;2.14;100.00;95578.72;4892394;29;20039;-57
2021/12/05 01:55:06;;;;;;;4.22;1.58;;;;;;;2.16;100.00;95568.38;4926538;29;20067;-61
2021/12/05 02:00:31;;;;;;;4.25;1.60;;;;;;;2.22;100.00;95560.81;4907061;29;20048;-60
2021/12/05 02:07:37;;;;;;;8.38;3.47;;;;;;;2.25;100.00;95568.22;4908536;29;20055;-60
2021/12/05 02:11:25;;;;;;;6.72;1.42;;;;;;;2.21;100.00;95556.53;4903484;29;20040;-62
2021/12/05 02:33:08;;;;;;;4.85;1.77;;;;;;;2.13;100.00;95542.03;4926333;29;20043;-61
2021/12/05 02:36:06;;;;;;;6.57;1.50;;;;;;;1.99;100.00;95534.28;4922506;29;20051;-62
2021/12/05 02:41:16;;;;;;;5.82;1.30;;;;;;;1.93;100.00;95524.84;4918938;29;20047;-61
2021/12/05 02:43:48;;;;;;;4.60;1.70;;;;;;;1.72;100.00;95531.13;4925274;29;20497;-61
2021/12/05 02:46:16;;;;;;;3.53;1.40;;;;;;;1.87;100.00;95540.50;4920976;29;20052;-59
2021/12/05 02:48:43;;;;;;;3.58;1.40;;;;;;;1.82;100.00;95542.59;4930529;29;20068;-60
2021/12/05 02:51:15;;;;;;;4.18;1.75;;;;;;;1.78;100.00;95515.50;4922797;29;20043;-60
2021/12/05 02:54:02;;;;;;;3.67;1.80;;;;;;;1.79;100.00;95516.31;4925872;29;20067;-59
2021/12/05 02:56:32;;;;;;;3.47;1.67;;;;;;;1.76;100.00;95504.25;4922211;29;20043;-60
2021/12/05 02:59:05;;;;;;;11.82;2.55;;;;;;;1.63;100.00;95506.19;4924153;29;20039;-60
2021/12/05 03:03:58;;;;;;;6.10;1.80;;;;;;;1.57;100.00;95510.25;4926815;29;20532;-59
2021/12/05 03:06:28;;;;;;;3.58;1.40;;;;;;;1.61;100.00;95503.03;4916914;29;20855;-59
2021/12/05 03:09:05;;;;;;;6.88;2.22;;;;;;;1.62;100.00;95499.22;4924672;29;20484;-59
2021/12/05 03:11:31;;;;;;;8.20;2.40;;;;;;;1.58;100.00;95503.69;4923251;29;20043;-61
2021/12/05 03:13:58;;;;;;;5.97;1.45;;;;;;;1.59;100.00;95513.38;4925560;29;20040;-61
2021/12/05 03:16:28;;;;;;;5.40;2.00;;;;;;;1.58;100.00;95506.41;4922642;29;20258;-59
2021/12/05 03:18:54;;;;;;;3.80;1.95;;;;;;;1.59;100.00;95515.31;4949054;29;20135;-60
2021/12/05 03:21:20;;;;;;;4.47;2.22;;;;;;;1.43;100.00;95507.88;4919401;29;20051;-60
2021/12/05 03:23:48;;;;;;;6.80;2.30;;;;;;;1.44;100.00;95519.44;4926037;29;20043;-60
2021/12/05 03:26:20;;;;;;;3.50;1.75;;;;;;;1.46;100.00;95517.19;4917171;29;20044;-60
2021/12/05 03:28:49;;;;;;;3.70;1.85;;;;;;;1.48;100.00;95513.03;4925704;29;20146;-62
2021/12/05 03:31:14;;;;;;;5.57;1.70;;;;;;;1.33;100.00;95516.38;4920954;29;20040;-61
2021/12/05 03:33:40;;;;;;;4.03;2.58;;;;;;;1.29;100.00;95507.41;4923975;29;20044;-63
2021/12/05 03:36:09;;;;;;;5.20;1.60;;;;;;;1.21;100.00;95511.78;4920077;29;20043;-61
2021/12/05 03:38:36;;;;;;;3.70;2.05;;;;;;;1.21;100.00;95509.09;4924897;29;20046;-60
2021/12/05 03:41:04;;;;;;;12.13;1.88;;;;;;;1.25;100.00;95503.81;4924529;29;20382;-61
2021/12/05 03:43:30;;;;;;;3.40;1.73;;;;;;;1.27;100.00;95499.63;4924055;29;20040;-60
2021/12/05 03:45:58;;;;;;;4.82;1.50;;;;;;;1.33;100.00;95498.31;4932828;29;20046;-60
2021/12/05 03:48:27;;;;;;;3.08;1.27;;;;;;;1.41;100.00;95496.63;4930967;29;20593;-61
2021/12/05 03:50:53;;;;;;;5.77;1.50;;;;;;;1.30;100.00;95498.19;4927877;29;20135;-60
2021/12/05 03:53:20;;;;;;;7.38;1.70;;;;;;;1.20;100.00;95494.00;4921464;29;20035;-61
2021/12/05 03:55:50;;;;;;;4.32;1.70;;;;;;;1.19;100.00;95505.94;4936638;29;20040;-59
2021/12/05 03:58:18;;;;;;;5.70;2.00;;;;;;;1.27;100.00;95496.16;4920105;29;20039;-61
2021/12/05 04:00:47;;;;;;;2.83;1.60;;;;;;;1.22;100.00;95490.97;4936658;28;20449;-60
2021/12/05 04:03:15;;;;;;;6.93;2.13;;;;;;;1.10;100.00;95491.78;4920639;29;20063;-60
2021/12/05 04:05:41;;;;;;;6.03;2.30;;;;;;;1.03;100.00;95491.53;4928037;29;20043;-60
2021/12/05 04:08:10;;;;;;;6.53;2.35;;;;;;;1.13;100.00;95489.19;4930558;29;20043;-60
2021/12/05 04:10:40;;;;;;;4.97;2.30;;;;;;;1.02;100.00;95492.66;4932506;29;20040;-59
2021/12/05 04:13:14;;;;;;;4.53;2.08;;;;;;;1.00;100.00;95492.97;4916952;29;20477;-60
2021/12/05 04:15:40;;;;;;;3.55;2.28;;;;;;;1.06;100.00;95494.34;4926234;29;20111;-60
2021/12/05 04:18:06;;;;;;;7.28;2.58;;;;;;;1.18;100.00;95492.78;4920985;29;20040;-57
2021/12/05 04:20:33;;;;;;;4.25;2.53;;;;;;;1.21;100.00;95497.53;4923784;29;20043;-56
2021/12/05 04:22:59;;;;;;;4.03;2.10;;;;;;;1.32;100.00;95495.94;4922314;29;20130;-60
2021/12/05 04:25:25;;;;;;;6.78;2.17;;;;;;;1.40;100.00;95491.56;4929573;29;20044;-59
2021/12/05 04:27:54;;;;;;;4.47;1.90;;;;;;;1.37;100.00;95493.03;4923014;29;20534;-59
2021/12/05 04:30:22;;;;;;;6.18;1.67;;;;;;;1.33;100.00;95494.81;4919059;29;20047;-59
2021/12/05 04:32:48;;;;;;;4.18;2.30;;;;;;;1.27;100.00;95488.84;4925019;29;20051;-61
2021/12/05 04:35:15;;;;;;;2.70;1.80;;;;;;;1.21;100.00;95487.50;4917934;29;20036;-61
2021/12/05 04:37:42;;;;;;;4.70;1.85;;;;;;;1.39;100.00;95490.78;4922441;29;20050;-61
2021/12/05 04:40:10;;;;;;;3.20;2.20;;;;;;;1.43;100.00;95490.91;4933570;28;20701;-61
2021/12/05 04:42:36;;;;;;;4.13;2.15;;;;;;;1.47;100.00;95497.19;4922540;29;20107;-60
2021/12/05 04:45:07;;;;;;;5.15;1.80;;;;;;;1.39;100.00;95493.47;4922316;29;20036;-60
2021/12/05 04:47:32;;;;;;;5.80;1.95;;;;;;;1.17;100.00;95493.91;4922964;29;20602;-60
2021/12/05 04:49:58;;;;;;;6.45;2.70;;;;;;;0.88;100.00;95498.34;4923714;29;20044;-60
2021/12/05 04:52:24;;;;;;;7.47;2.28;;;;;;;0.67;100.00;95499.19;4915000;29;20052;-60
2021/12/05 04:54:49;;;;;;;4.90;2.67;;;;;;;0.64;100.00;95496.38;4917914;29;20378;-60
2021/12/05 04:57:16;;;;;;;50.40;23.60;;;;;;;0.50;100.00;95500.13;4913658;29;20144;-58
2021/12/05 04:59:47;;;;;;;7.80;3.88;;;;;;;0.54;100.00;95497.56;4923196;29;20130;-59
2021/12/05 05:02:13;;;;;;;5.50;2.70;;;;;;;0.76;100.00;95497.19;4918415;29;20190;-61
2021/12/05 05:04:45;;;;;;;6.90;2.55;;;;;;;0.71;100.00;95496.63;4923745;29;20521;-60
2021/12/05 05:07:20;;;;;;;4.85;2.50;;;;;;;0.71;100.00;95493.91;4918431;29;20126;-60
2021/12/05 05:09:47;;;;;;;4.57;2.15;;;;;;;0.92;100.00;95491.97;4923341;29;20050;-61
2021/12/05 05:12:13;;;;;;;4.80;2.20;;;;;;;0.79;100.00;95487.63;4917348;29;20043;-61
2021/12/05 05:14:40;;;;;;;5.70;2.72;;;;;;;0.71;100.00;95486.63;4923909;29;20051;-61
2021/12/05 05:17:06;;;;;;;6.38;2.45;;;;;;;0.66;100.00;95486.81;4919019;29;20080;-61
2021/12/05 05:19:38;;;;;;;5.57;2.58;;;;;;;0.62;100.00;95490.53;4923857;29;20146;-62
2021/12/05 05:27:52;;;;;;;5.10;3.00;;;;;;;0.26;100.00;95486.56;4918750;29;20116;-61
2021/12/05 05:51:59;;;;;;;7.32;3.15;;;;;;;0.32;100.00;95488.69;4914003;29;20036;-62
2021/12/05 05:54:25;;;;;;;6.57;3.42;;;;;;;0.42;100.00;95486.75;4927000;29;20048;-62
2021/12/05 05:56:57;;;;;;;7.13;3.40;;;;;;;0.55;100.00;95488.34;4929122;29;20043;-61
2021/12/05 05:59:27;;;;;;;5.90;3.30;;;;;;;0.48;100.00;95483.50;4919574;29;20642;-62
2021/12/05 06:04:19;;;;;;;8.52;3.00;;;;;;;0.38;100.00;95475.84;4919769;29;20066;-62
2021/12/05 06:06:45;;;;;;;8.25;3.55;;;;;;;0.40;100.00;95479.00;4925013;29;20038;-62
2021/12/05 06:09:11;;;;;;;6.78;3.05;;;;;;;0.44;100.00;95476.44;4920348;29;20047;-61
2021/12/05 06:11:37;;;;;;;7.22;3.38;;;;;;;0.33;100.00;95471.44;4925468;29;20119;-59
2021/12/05 06:14:04;;;;;;;8.60;3.63;;;;;;;0.33;100.00;95468.75;4921620;29;20040;-61
2021/12/05 06:16:30;;;;;;;8.70;3.60;;;;;;;0.29;100.00;95462.44;4923082;29;20079;-62
2021/12/05 06:18:56;;;;;;;7.35;3.20;;;;;;;0.31;100.00;95467.50;4926073;29;20103;-62
2021/12/05 06:21:22;;;;;;;5.82;2.75;;;;;;;0.34;100.00;95469.53;4916854;29;20535;-61
2021/12/05 06:23:48;;;;;;;6.93;3.50;;;;;;;0.36;100.00;95460.00;4922261;29;20051;-61
2021/12/05 06:26:20;;;;;;;5.82;3.13;;;;;;;0.35;100.00;95457.66;4917813;29;20048;-61
2021/12/05 06:29:07;;;;;;;7.78;3.15;;;;;;;0.36;100.00;95459.19;4923855;29;20051;-62
2021/12/05 06:31:52;;;;;;;6.82;3.63;;;;;;;0.37;100.00;95471.56;4932087;29;20040;-63
2021/12/05 06:40:00;;;;;;;9.38;3.10;;;;;;;0.93;100.00;95474.63;4964398;28;20066;-65
2021/12/05 06:47:54;;;;;;;4.63;2.20;;;;;;;0.88;100.00;95499.13;4944698;28;20408;-66
2021/12/05 06:50:20;;;;;;;11.27;2.40;;;;;;;0.61;100.00;95495.09;4940922;28;20043;-65
2021/12/05 06:52:46;;;;;;;4.32;2.25;;;;;;;0.60;100.00;95498.94;4965200;28;20039;-65
2021/12/05 06:55:14;;;;;;;4.30;2.05;;;;;;;0.57;100.00;95491.50;4953381;28;20039;-63
2021/12/05 06:57:40;;;;;;;4.40;2.55;;;;;;;0.52;100.00;95497.91;4945913;28;20102;-63
2021/12/05 07:00:13;;;;;;;6.53;2.95;;;;;;;0.52;100.00;95489.81;4939968;28;20544;-62
2021/12/05 07:02:39;;;;;;;5.38;2.90;;;;;;;0.51;100.00;95496.31;4946030;28;20118;-63
2021/12/05 07:08:04;;;;;;;12.45;4.60;;;;;;;0.89;100.00;95498.00;4921193;28;20054;-63
2021/12/05 07:10:34;;;;;;;9.38;2.72;;;;;;;0.86;100.00;95490.56;4944079;29;20047;-64
2021/12/05 07:15:50;;;;;;;11.88;3.63;;;;;;;0.95;100.00;95512.06;4943544;28;20129;-65
2021/12/05 07:42:24;;;;;;;7.45;3.15;;;;;;;1.20;100.00;95506.72;4940140;28;20052;-62
2021/12/05 07:44:56;;;;;;;8.63;4.32;;;;;;;1.32;100.00;95507.53;4948594;28;20035;-63
2021/12/05 07:47:25;;;;;;;9.38;4.63;;;;;;;1.41;100.00;95506.63;4939617;28;21104;-63
2021/12/05 07:49:53;;;;;;;8.23;3.88;;;;;;;1.48;100.00;95517.66;4942807;28;20389;-64
2021/12/05 07:52:22;;;;;;;5.32;3.58;;;;;;;1.49;100.00;95511.13;4938392;28;20054;-64
2021/12/05 07:54:56;;;;;;;6.22;4.30;;;;;;;1.57;100.00;95509.44;4943279;29;20070;-64
2021/12/05 07:57:42;;;;;;;8.27;3.08;;;;;;;1.66;100.00;95508.22;4950644;28;20393;-65
2021/12/05 08:16:35;;;;;;;9.85;2.30;;;;;;;2.28;100.00;95502.72;4948715;28;20070;-63
2021/12/05 08:19:02;;;;;;;4.03;2.30;;;;;;;2.42;100.00;95497.72;4944262;28;20521;-64
2021/12/05 08:21:27;;;;;;;5.47;3.17;;;;;;;2.46;100.00;95498.59;4937097;28;20133;-64
2021/12/05 08:23:53;;;;;;;5.00;2.45;;;;;;;2.45;100.00;95496.25;4956840;28;20190;-64
2021/12/05 08:26:25;;;;;;;5.82;2.40;;;;;;;2.44;100.00;95490.03;4939430;28;20031;-65
2021/12/05 08:31:37;;;;;;;5.13;1.73;;;;;;;2.59;100.00;95496.66;4951168;28;20121;-65
2021/12/05 09:20:02;;;;;;;7.18;2.33;;;;;;;7.92;76.39;95476.69;4947435;28;20875;-66
2021/12/05 09:23:31;;;;;;;3.95;1.45;;;;;;;9.28;66.25;95469.13;4949396;28;20043;-63
2021/12/05 09:31:03;;;;;;;5.60;1.67;;;;;;;8.96;63.37;95477.25;4946022;28;20494;-63
2021/12/05 10:11:39;;;;;;;4.00;1.33;;;;;;;7.59;66.88;95462.84;4891014;28;20056;-63
2021/12/05 10:19:48;;;;;;;2.72;1.20;;;;;;;7.05;68.96;95454.19;4942635;28;20049;-64
2021/12/05 10:26:25;;;;;;;3.08;0.88;;;;;;;6.98;68.91;95453.34;4950777;28;20122;-66
2021/12/05 10:36:26;;;;;;;3.65;1.25;;;;;;;7.36;67.84;95437.72;4947818;28;20043;-65
2021/12/05 10:38:57;;;;;;;2.50;1.00;;;;;;;7.37;69.28;95431.91;4947229;28;20369;-67
2021/12/05 10:44:02;;;;;;;5.78;1.40;;;;;;;6.68;71.90;95437.84;4940059;28;20035;-65
2021/12/05 10:46:31;;;;;;;2.83;1.38;;;;;;;6.71;71.37;95431.66;4942306;28;20683;-66
2021/12/05 10:49:07;;;;;;;6.00;1.30;;;;;;;6.61;70.69;95427.69;4946099;28;20488;-65
2021/12/05 10:51:37;;;;;;;4.93;2.00;;;;;;;7.18;67.25;95423.97;4949141;28;20043;-64
2021/12/05 10:54:08;;;;;;;5.13;2.00;;;;;;;7.68;67.59;95418.91;4961384;28;20059;-67
2021/12/05 10:56:56;;;;;;;1.88;0.95;;;;;;;7.33;68.27;95417.50;4952917;29;20482;-66
2021/12/05 10:59:29;;;;;;;3.53;1.20;;;;;;;7.26;66.22;95420.94;4945772;28;20523;-66
2021/12/05 11:02:01;;;;;;;2.70;1.20;;;;;;;7.43;67.21;95424.16;4952019;28;20051;-66
2021/12/05 11:04:30;;;;;;;3.28;0.98;;;;;;;7.24;67.34;95427.91;4945142;28;20079;-65
2021/12/05 11:07:07;;;;;;;8.25;4.00;;;;;;;7.00;68.52;95431.97;4946700;28;20043;-66
2021/12/05 11:09:36;;;;;;;4.20;1.10;;;;;;;6.94;69.34;95426.06;4935873;28;20045;-66
2021/12/05 11:12:10;;;;;;;4.50;1.35;;;;;;;6.74;69.25;95424.72;4944429;28;20126;-66
2021/12/05 11:15:13;;;;;;;6.47;1.33;;;;;;;6.84;69.09;95421.31;4943521;28;20130;-66
2021/12/05 11:17:43;;;;;;;1.92;0.93;;;;;;;6.89;69.96;95419.03;4942374;28;20047;-68
2021/12/05 11:20:09;;;;;;;;;;;;;;;7.23;69.37;95415.44;4939351;28;20047;-67
2021/12/05 11:22:41;;;;;;;2.65;1.00;;;;;;;7.50;67.33;95415.28;4948441;28;19969;-65
2021/12/05 11:25:11;;;;;;;1.95;1.40;;;;;;;7.53;67.88;95412.59;4938647;28;20046;-66
2021/12/05 11:27:43;;;;;;;2.72;1.30;;;;;;;8.04;65.40;95417.19;4944321;28;20050;-67
2021/12/05 11:30:14;;;;;;;3.20;1.10;;;;;;;8.05;64.81;95409.81;4939455;28;20040;-67
2021/12/05 11:32:51;;;;;;;6.30;0.70;;;;;;;8.29;64.15;95402.91;4943460;28;20050;-65
2021/12/05 11:35:26;;;;;;;3.72;1.10;;;;;;;7.57;64.67;95410.66;4943172;28;20058;-65
2021/12/05 11:38:08;;;;;;;7.00;1.52;;;;;;;7.21;66.16;95406.88;4940762;29;20127;-66
2021/12/05 11:40:42;;;;;;;3.40;1.10;;;;;;;6.61;67.25;95402.41;4942796;28;20065;-67
2021/12/05 11:43:10;;;;;;;2.85;0.95;;;;;;;6.61;68.21;95408.63;4938927;28;20082;-67
2021/12/05 11:46:09;;;;;;;2.53;1.08;;;;;;;6.85;67.31;95409.28;4943787;28;20054;-67
2021/12/05 11:48:54;;;;;;;2.33;1.73;;;;;;;7.49;64.58;95410.97;4943382;28;20115;-68
2021/12/05 11:51:32;;;;;;;5.53;0.80;;;;;;;7.80;63.23;95410.44;4939303;28;20047;-67
2021/12/05 11:54:03;;;;;;;3.42;1.08;;;;;;;8.34;61.13;95412.66;4949232;28;20504;-67
2021/12/05 11:56:38;;;;;;;2.45;0.80;;;;;;;7.75;61.81;95410.78;4931001;28;20055;-65
2021/12/05 11:59:18;;;;;;;1.20;0.80;;;;;;;7.19;64.93;95404.53;4938718;28;20042;-65
2021/12/05 12:01:53;;;;;;;4.07;1.27;;;;;;;7.36;64.18;95411.28;4941891;28;20050;-66
2021/12/05 12:04:24;;;;;;;4.55;1.35;;;;;;;7.28;64.55;95406.94;4938428;28;20456;-66
2021/12/05 12:07:12;;;;;;;2.42;1.00;;;;;;;6.69;65.93;95404.06;4943174;28;20062;-65
2021/12/05 12:09:39;;;;;;;1.98;1.17;;;;;;;6.60;67.74;95400.84;4942384;28;20054;-64
2021/12/05 12:12:05;;;;;;;5.22;1.05;;;;;;;7.37;64.77;95401.94;4939844;28;20046;-63
2021/12/05 12:14:30;;;;;;;3.35;0.95;;;;;;;7.74;63.49;95405.72;4943723;28;20043;-65
2021/12/05 12:16:57;;;;;;;2.30;0.90;;;;;;;7.64;62.94;95397.09;4949791;28;20492;-63
2021/12/05 12:19:23;;;;;;;2.20;0.88;;;;;;;7.58;61.53;95393.16;4935122;28;20610;-65
2021/12/05 12:21:52;;;;;;;2.13;0.98;;;;;;;6.70;65.06;95397.47;4960549;28;20594;-65
2021/12/05 12:24:18;;;;;;;4.03;1.05;;;;;;;6.08;67.28;95398.69;4945683;28;20046;-63
2021/12/05 12:26:44;;;;;;;1.55;0.75;;;;;;;5.98;67.83;95395.81;4941324;28;20050;-64
2021/12/05 12:29:12;;;;;;;4.25;1.15;;;;;;;6.29;67.83;95397.41;4938326;28;20054;-66
2021/12/05 12:31:42;;;;;;;4.45;1.00;;;;;;;6.47;65.27;95395.66;4943103;28;20520;-64
2021/12/05 12:34:12;;;;;;;;;;;;;;;6.44;67.13;95396.38;4938152;28;20137;-63
2021/12/05 12:36:44;;;;;;;3.75;1.20;;;;;;;6.43;67.79;95402.22;4943423;28;20412;-63
2021/12/05 12:39:15;;;;;;;3.38;1.00;;;;;;;6.45;67.57;95392.53;4940610;28;20516;-64
2021/12/05 12:41:59;;;;;;;1.58;0.80;;;;;;;5.84;69.12;95386.31;4942105;28;20083;-64
2021/12/05 12:44:25;;;;;;;5.53;0.93;;;;;;;5.94;68.17;95387.59;4938695;28;20558;-63
2021/12/05 12:46:56;;;;;;;5.25;2.55;;;;;;;5.79;69.44;95386.63;4941182;29;20047;-65
2021/12/05 12:49:27;;;;;;;3.88;0.82;;;;;;;5.60;67.26;95389.47;4932207;28;20047;-64
2021/12/05 12:51:57;;;;;;;1.90;0.88;;;;;;;5.41;70.31;95393.84;4942326;28;20512;-63
2021/12/05 12:54:29;;;;;;;1.60;1.10;;;;;;;5.20;70.21;95390.81;4937887;28;20426;-63
2021/12/05 12:57:15;;;;;;;1.85;1.20;;;;;;;4.98;71.17;95390.44;4937577;29;20127;-65
2021/12/05 13:00:00;;;;;;;5.07;1.80;;;;;;;5.08;72.08;95389.09;4930783;29;20183;-63
2021/12/05 13:02:49;;;;;;;2.75;1.70;;;;;;;5.31;72.14;95395.25;4918690;29;20039;-64
2021/12/05 13:10:51;;;;;;;5.30;1.48;;;;;;;5.80;70.97;95399.06;4923353;29;19915;-62
2021/12/05 13:13:25;;;;;;;4.45;1.60;;;;;;;5.82;71.02;95396.78;4929250;28;20066;-63
2021/12/05 13:16:17;;;;;;;3.45;1.42;;;;;;;6.73;68.76;95398.66;4945250;28;20066;-63
2021/12/05 13:18:45;;;;;;;2.10;1.27;;;;;;;6.85;66.17;95398.38;4922885;28;20081;-63
2021/12/05 13:21:18;;;;;;;6.28;1.25;;;;;;;7.13;65.71;95399.78;4926752;28;20039;-63
2021/12/05 13:23:51;;;;;;;4.07;1.20;;;;;;;7.08;66.49;95395.50;4942510;28;20155;-62
2021/12/05 13:26:19;;;;;;;13.98;1.42;;;;;;;6.88;66.65;95398.41;4937464;28;20172;-62
2021/12/05 13:28:52;;;;;;;5.47;1.52;;;;;;;6.67;67.27;95398.97;4942403;28;20047;-62
2021/12/05 13:31:26;;;;;;;6.55;1.83;;;;;;;6.38;67.94;95400.59;4937363;28;20039;-63
2021/12/05 13:34:16;;;;;;;2.78;1.30;;;;;;;5.89;68.44;95404.25;4943291;28;20097;-65
2021/12/05 13:36:45;;;;;;;8.25;1.65;;;;;;;5.66;70.39;95405.09;4943088;28;20043;-63
2021/12/05 13:39:43;;;;;;;4.07;1.50;;;;;;;5.67;70.62;95398.50;4940713;28;20043;-63
2021/12/05 13:42:09;;;;;;;4.35;1.42;;;;;;;5.77;70.66;95396.31;4950988;28;20043;-67
2021/12/05 13:44:57;;;;;;;8.27;1.42;;;;;;;5.98;69.92;95399.34;4955473;28;20055;-65
2021/12/05 13:47:28;;;;;;;8.02;1.35;;;;;;;5.96;69.64;95403.56;4952087;28;22195;-64
2021/12/05 13:49:56;;;;;;;3.78;1.27;;;;;;;5.89;69.90;95398.81;4955250;28;20111;-66
2021/12/05 13:52:41;;;;;;;5.38;1.80;;;;;;;5.82;70.12;95401.44;4953364;28;28738;-64
2021/12/05 13:55:49;;;;;;;7.72;3.80;;;;;;;5.66;71.14;95396.94;4951637;28;20043;-63
2021/12/05 13:58:33;;;;;;;4.13;2.00;;;;;;;5.88;68.12;95408.09;4944351;28;20060;-65
2021/12/05 14:01:25;;;;;;;5.72;2.08;;;;;;;5.68;68.56;95397.34;4954345;28;20099;-66
2021/12/05 14:03:51;;;;;;;12.23;5.60;;;;;;;5.58;71.07;95402.63;4933486;28;20048;-64
2021/12/05 14:06:27;;;;;;;15.50;6.82;;;;;;;5.42;70.37;95403.56;4921529;28;20040;-65
2021/12/05 14:08:56;;;;;;;6.68;2.35;;;;;;;5.42;70.42;95410.91;4926557;28;20294;-65
2021/12/05 14:11:26;;;;;;;12.10;2.40;;;;;;;5.48;70.66;95407.53;4922324;28;20748;-64
2021/12/05 14:13:52;;;;;;;9.43;3.78;;;;;;;5.36;71.00;95402.31;4939221;28;20420;-64
2021/12/05 14:16:19;;;;;;;26.58;13.07;;;;;;;5.25;71.08;95406.78;4939574;28;20039;-66
2021/12/05 14:18:46;;;;;;;7.20;3.30;;;;;;;5.11;72.24;95401.91;4955465;28;20051;-63
2021/12/05 14:21:15;;;;;;;6.57;1.70;;;;;;;5.08;72.79;95411.56;4950385;28;20055;-64
2021/12/05 14:23:48;;;;;;;7.18;2.22;;;;;;;4.94;73.34;95406.66;4952093;28;20066;-64
2021/12/05 14:26:16;;;;;;;7.43;2.70;;;;;;;4.96;73.98;95401.66;4954553;28;20527;-63
2021/12/05 14:28:42;;;;;;;2.67;2.05;;;;;;;4.98;73.78;95401.31;4964521;28;20118;-63
2021/12/05 14:31:08;;;;;;;4.50;2.38;;;;;;;5.00;73.98;95407.16;4944068;28;20472;-63
2021/12/05 14:33:50;;;;;;;10.00;3.30;;;;;;;4.95;74.77;95410.16;4949082;28;20131;-65
2021/12/05 14:36:35;;;;;;;12.88;7.30;;;;;;;4.98;74.98;95404.78;4944359;28;20066;-64
2021/12/05 14:39:10;;;;;;;9.45;5.22;;;;;;;5.03;73.79;95414.56;4949377;28;20047;-64
2021/12/05 14:41:37;;;;;;;7.57;4.97;;;;;;;5.02;73.95;95414.94;4947902;28;20051;-63
2021/12/05 14:44:03;;;;;;;8.52;3.30;;;;;;;4.94;75.71;95420.25;4951655;28;20047;-63
2021/12/05 14:46:29;;;;;;;7.60;4.32;;;;;;;4.95;75.45;95410.16;4939434;29;20122;-65
2021/12/05 14:49:02;;;;;;;12.00;3.28;;;;;;;4.99;75.39;95413.75;4927275;28;20139;-63
2021/12/05 14:51:35;;;;;;;8.40;2.55;;;;;;;5.00;75.23;95415.28;4924127;28;20054;-63
2021/12/05 14:54:02;;;;;;;7.53;2.00;;;;;;;4.97;75.77;95421.47;4945504;28;20102;-63
2021/12/05 14:56:30;;;;;;;4.80;1.50;;;;;;;4.87;75.89;95422.06;4941908;28;20074;-62
2021/12/05 14:59:11;;;;;;;2.45;1.30;;;;;;;4.78;76.61;95430.41;4936422;28;20044;-62
2021/12/05 15:01:39;;;;;;;4.15;1.92;;;;;;;4.76;77.70;95430.00;4941667;28;20062;-65
2021/12/05 15:04:09;;;;;;;6.45;2.80;;;;;;;4.57;77.50;95437.03;4941328;28;20409;-62
2021/12/05 15:06:43;;;;;;;13.23;5.95;;;;;;;4.26;79.03;95434.47;4936165;28;20044;-65
2021/12/05 15:09:27;;;;;;;5.22;1.65;;;;;;;3.80;81.27;95440.47;4936826;28;20102;-65
2021/12/05 15:12:16;;;;;;;3.20;1.30;;;;;;;3.47;82.65;95444.34;4946228;28;20047;-64
2021/12/05 15:14:43;;;;;;;3.45;1.55;;;;;;;3.40;85.04;95442.28;4946448;28;20055;-64
2021/12/05 15:17:12;;;;;;;4.95;1.75;;;;;;;3.37;85.54;95442.19;4942166;28;20048;-65
2021/12/05 15:19:42;;;;;;;5.68;1.40;;;;;;;3.35;86.00;95442.56;4947461;28;20046;-64
2021/12/05 15:22:09;;;;;;;3.85;1.58;;;;;;;3.33;84.82;95444.81;4956372;28;20115;-64
2021/12/05 15:24:36;;;;;;;4.85;1.50;;;;;;;3.29;84.16;95446.63;4943559;28;20114;-65
2021/12/05 15:27:04;;;;;;;4.30;1.48;;;;;;;3.28;84.84;95449.69;4941559;28;20051;-63
2021/12/05 15:29:30;;;;;;;5.60;2.00;;;;;;;3.30;84.96;95456.34;4940104;28;20051;-64
2021/12/05 15:31:57;;;;;;;4.00;1.30;;;;;;;3.36;85.04;95449.50;4944547;28;20480;-65
2021/12/05 15:34:30;;;;;;;5.13;2.10;;;;;;;3.29;84.99;95454.75;4938110;28;20341;-63
2021/12/05 15:36:59;;;;;;;5.07;1.98;;;;;;;3.17;85.91;95460.25;4943945;28;20051;-64
2021/12/05 15:39:30;;;;;;;4.43;1.48;;;;;;;3.13;87.84;95457.47;4943363;28;20061;-64
2021/12/05 15:41:58;;;;;;;4.68;1.48;;;;;;;3.13;88.80;95465.56;4944061;28;20102;-64
2021/12/05 15:44:30;;;;;;;4.50;1.33;;;;;;;3.21;88.74;95463.84;4937979;28;20269;-64
2021/12/05 15:47:27;;;;;;;4.60;1.45;;;;;;;3.33;89.65;95460.25;4940019;28;20504;-66
2021/12/05 15:50:03;;;;;;;6.43;3.30;;;;;;;3.43;89.35;95463.22;4941657;28;20105;-64
2021/12/05 15:52:43;;;;;;;15.32;6.80;;;;;;;3.43;89.04;95465.16;4942565;28;20051;-65
2021/12/05 15:55:14;;;;;;;12.27;3.33;;;;;;;3.20;90.28;95467.69;4939402;28;20098;-65
2021/12/05 15:57:43;;;;;;;6.25;3.88;;;;;;;3.06;88.68;95470.81;4926062;29;20054;-64
2021/12/05 16:00:19;;;;;;;5.22;2.63;;;;;;;3.03;90.96;95474.22;4937747;28;20065;-63
2021/12/05 16:02:47;;;;;;;20.67;13.02;;;;;;;3.00;91.36;95477.63;4955086;28;20058;-65
2021/12/05 16:05:23;;;;;;;8.05;4.65;;;;;;;3.03;92.38;95476.94;4936416;28;20078;-64
2021/12/05 16:07:49;;;;;;;9.02;3.70;;;;;;;3.10;92.33;95479.00;4944325;28;20039;-63
2021/12/05 16:10:24;;;;;;;10.70;5.07;;;;;;;2.96;92.83;95485.63;4939295;28;20607;-64
2021/12/05 16:12:52;;;;;;;5.15;2.70;;;;;;;2.93;93.54;95482.84;4938595;28;20051;-64
2021/12/05 16:15:25;;;;;;;4.68;2.47;;;;;;;2.92;94.57;95487.47;4937007;28;20141;-65
2021/12/05 16:17:59;;;;;;;5.78;1.90;;;;;;;3.00;95.07;95483.03;4943823;28;20043;-65
2021/12/05 16:20:40;;;;;;;5.90;2.15;;;;;;;3.00;96.21;95488.44;4937430;28;20126;-64
2021/12/05 16:23:26;;;;;;;3.95;2.30;;;;;;;2.83;95.52;95490.34;4938484;28;20044;-63
2021/12/05 16:26:00;;;;;;;6.03;2.97;;;;;;;2.84;96.54;95493.81;4940274;28;20480;-63
2021/12/05 16:28:36;;;;;;;7.53;3.22;;;;;;;2.82;96.50;95496.84;4932264;28;20039;-64
2021/12/05 16:31:21;;;;;;;7.35;3.50;;;;;;;2.84;96.28;95502.72;4943376;28;20378;-63
2021/12/05 16:33:54;;;;;;;5.80;2.33;;;;;;;2.74;97.94;95494.31;4942189;28;20500;-64
2021/12/05 16:36:21;;;;;;;28.08;12.35;;;;;;;2.72;97.98;95499.28;4944467;28;20140;-66
2021/12/05 16:38:51;;;;;;;6.45;2.65;;;;;;;2.65;97.81;95492.56;4955076;28;20046;-64
2021/12/05 16:41:26;;;;;;;3.58;2.42;;;;;;;2.78;98.69;95496.00;4949510;28;20469;-64
2021/12/05 16:43:57;;;;;;;10.50;3.55;;;;;;;2.98;99.27;95496.91;4961665;28;20107;-65
2021/12/05 16:46:25;;;;;;;6.90;4.40;;;;;;;3.08;98.88;95495.63;4944035;28;20617;-64
2021/12/05 16:48:52;;;;;;;10.52;5.15;;;;;;;3.21;98.38;95499.03;4941918;28;20427;-65
2021/12/05 16:51:26;;;;;;;12.68;6.28;;;;;;;3.17;98.24;95500.84;4937851;28;20031;-65
2021/12/05 16:53:59;;;;;;;13.82;6.18;;;;;;;3.44;98.11;95510.81;4924774;28;20043;-65
2021/12/05 16:56:44;;;;;;;9.65;5.13;;;;;;;3.39;92.42;95515.72;4920685;28;20592;-65
2021/12/05 16:59:32;;;;;;;4.10;2.67;;;;;;;2.98;94.50;95523.94;4919497;28;20124;-65
2021/12/05 17:02:13;;;;;;;7.55;4.28;;;;;;;2.98;97.46;95520.47;4928077;28;20138;-64
2021/12/05 17:05:17;;;;;;;6.93;3.78;;;;;;;3.11;98.42;95523.88;4940546;29;20047;-64